< Cyclone 197903 1979 Season Cyclone 197905 >
Cyclone 197904 (ROSA)
General InformationTrack Information on Google MapsList of All Images || ResourceGoogle EarthGE AnimationAtom FeedGeoJSON
Detalied Best Track (Time Zone = UTC)
Year Month Day Hour Lat. Long. Pressure (hPa) Wind (kt) Class Image Chart
1979 2 11 23 -11.1 160.9 1008 0 0 Image --
1979 2 12 11 -13.0 157.9 1008 0 0 Image --
1979 2 12 23 -11.8 155.9 1008 0 0 Image --
1979 2 13 11 -10.8 153.4 1008 0 0 Image --
1979 2 13 23 -10.2 152.1 1008 0 0 Image --
1979 2 14 11 -10.9 149.7 1008 0 0 Image --
1979 2 14 23 -11.3 148.1 1007 0 0 Image --
1979 2 15 11 -12.3 146.4 1006 0 0 Image --
1979 2 15 23 -12.7 145.2 1006 0 0 Image --
1979 2 16 08 -13.1 143.6 1005 0 0 Image --
1979 2 16 11 -13.3 142.8 1005 0 0 Image --
1979 2 16 19 -13.7 141.6 1006 0 0 Image --
1979 2 17 12 -15.0 138.5 1006 0 0 Image --
1979 2 18 12 -15.7 137.3 1004 0 0 Image --
1979 2 19 12 -15.9 138.8 999 0 0 Image --
1979 2 20 12 -15.9 140.1 1000 0 0 Image --
1979 2 21 12 -15.9 139.3 1002 0 0 Image --
1979 2 22 12 -14.6 137.8 1001 0 0 Image --
1979 2 22 18 -14.2 137.7 999 0 0 Image --
1979 2 23 03 -13.5 138.3 999 0 0 Image --
1979 2 23 06 -13.8 138.2 999 0 0 Image --
1979 2 23 12 -14.0 137.6 998 0 0 Image --
1979 2 23 18 -13.7 137.4 998 0 0 Image --
1979 2 24 06 -13.4 137.5 996 0 0 Image --
1979 2 24 12 -13.5 137.8 996 0 0 Image --
1979 2 24 18 -14.3 138.0 996 0 0 Image --
1979 2 25 06 -15.0 137.8 990 0 0 Image --
1979 2 25 12 -15.1 137.6 983 0 0 Image --
1979 2 25 18 -15.0 137.3 975 0 0 Image --
1979 2 26 04 -15.3 136.2 955 0 0 Image --
1979 2 26 06 -15.4 135.9 975 0 0 Image --
1979 2 26 12 -15.6 134.8 985 0 0 Image --
1979 2 27 12 -16.9 132.2 994 0 0 Image --
1979 2 28 12 -18.5 127.4 999 0 0 Image --
1979 3 1 12 -19.4 124.2 999 0 0 Image --
1979 3 2 01 -19.7 122.5 1001 0 0 Image --
1979 3 2 12 -20.3 120.4 1000 0 0 Image --
1979 3 3 01 -21.0 118.6 1000 0 0 Image --
1979 3 3 12 -22.2 114.7 1000 0 0 Image --
1979 3 3 16 -22.4 113.8 1000 0 0 Image --
< Cyclone 197903 1979 Season Cyclone 197905 >

Help